Terminal Aerodrome Forecast
Issued by NWS

Home | Current Version | Previous Version | Text Only | Print | Product List | Glossary On
Versions: 1 2 3 4 5 6 7 8 9 10 11 12 13 14
000
FTUS44 KLIX 270522
TAFHUM
TAF
KHUM 270522Z 2706/2806 07005KT P6SM FEW035 SCT110
     FM271200 06008KT P6SM SCT035 BKN110
     FM271400 06009KT P6SM SCT030 BKN110 PROB30 2718/2721 4SM TSRA
      BKN030CB
     FM272100 05005KT P6SM SCT030 BKN100 PROB30 2721/2724 4SM TSRA
      BKN030CB BKN035
     FM280300 35005KT P6SM SCT050 BKN110=

USA.gov is the U.S. government's official web portal to all federal, state and local government web resources and services.